Thunder radar more information blitzortung!


avis per Pluja more information rain snow radar


Visita la nostra xarxa de llocs de meteo:

Template documentation
and downloads

And another site



Rain From: 17-10-2018 23:00 Until: 18-10-2018 16:59 warning for: Rain Level: Yellow info button

Pagina Historial Weather Underground text

Diari Resum May 18, 2017 Unitats:  Imperial    Mètric   Tant
« Previous Dia
SegĂźent Dia »
Diari Setmana Mensual Anual Personalitzada
  Maxima: Minima: Media:
Temperatura: TemperatureC °F 10.0 °F 17.9 °F
Punt de rosada: DewpointC °F 4.3 °F 9.9 °F
Humitat: Humidity % 40 % 60 %
Wind Speed: WindSpeedKMH mph 0.0 mph 6.9 mph
RĂ fegues de vent: WindSpeedGustKMH mph - -
Vent:- - SSW
Pression baro: PressurehPa in 1010.7 in -
Precipitacions: 1.3 in    
Historical Graphs
 
 
Dades de taula per May 18, 2017
Temps Temperatura Punt de rosada Pression baro Vent Wind Speed RĂ fegues de vent Humitat Rainfall Rate (Hourly)
TemperatureC °F DewpointC °F PressurehPa in Calm     Humidity % HourlyPrecipMM in
00:03 18.5 °F 6.9 °F 1015.8 in SW 1.9 mph 1.9 mph 47 % 0.0 in
00:05 14.0 °F 7.3 °F 1014.8 in Calm   1.6 mph 64 % 0.0 in
00:08 18.5 °F 6.9 °F 1015.8 in SW 1.9 mph   47 % 0.0 in
00:13 18.4 °F 7.2 °F 1015.8 in Calm     48 % 0.0 in
00:15 13.7 °F 7.0 °F 1013.8 in Calm   1.6 mph 64 % 0.0 in
00:18 18.3 °F 7.1 °F 1015.8 in Calm     48 % 0.0 in
00:23 18.2 °F 7.3 °F 1015.8 in SW 1.9 mph   49 % 0.0 in
00:25 13.6 °F 6.9 °F 1014.8 in Calm     64 % 0.0 in
00:28 18.1 °F 7.2 °F 1015.8 in Calm     49 % 0.0 in
00:33 18.0 °F 7.4 °F 1015.8 in Calm     50 % 0.0 in
00:35 13.5 °F 6.8 °F 1014.8 in Calm     64 % 0.0 in
00:38 18.0 °F 7.4 °F 1015.8 in Calm     50 % 0.0 in
00:45 13.5 °F 6.8 °F 1014.8 in Calm     64 % 0.0 in
00:55 13.5 °F 7.1 °F 1014.8 in Calm     65 % 0.0 in
01:05 13.6 °F 6.9 °F 1014.8 in SW 1.6 mph 3.2 mph 64 % 0.0 in
01:15 13.6 °F 6.9 °F 1014.8 in WSW 1.6 mph 3.2 mph 64 % 0.0 in
01:25 13.2 °F 6.6 °F 1014.8 in SW 1.6 mph 3.2 mph 64 % 0.0 in
01:35 13.1 °F 6.7 °F 1014.8 in Calm   1.6 mph 65 % 0.0 in
01:45 13.0 °F 6.8 °F 1014.8 in Calm   3.2 mph 66 % 0.0 in
01:55 13.0 °F 6.8 °F 1014.8 in Calm   3.2 mph 66 % 0.0 in
02:05 13.2 °F 7.0 °F 1014.8 in SSE 1.6 mph 3.2 mph 66 % 0.0 in
02:15 13.6 °F 7.4 °F 1014.8 in Calm   1.6 mph 66 % 0.0 in
02:25 13.9 °F 7.4 °F 1014.8 in SSW 3.2 mph 3.2 mph 65 % 0.0 in
02:35 14.0 °F 7.3 °F 1014.8 in SW 3.2 mph 3.2 mph 64 % 0.0 in
02:55 14.5 °F 7.8 °F 1014.8 in SW 3.2 mph 3.2 mph 64 % 0.0 in
03:05 14.7 °F 7.9 °F 1014.8 in Calm   3.2 mph 64 % 0.0 in
03:15 15.1 °F 8.1 °F 1014.8 in SW 1.6 mph 3.2 mph 63 % 0.0 in
03:25 16.1 °F 8.6 °F 1014.8 in SW 3.2 mph 4.8 mph 61 % 0.0 in
03:35 16.6 °F 8.8 °F 1014.8 in ENE 3.2 mph 4.8 mph 60 % 0.0 in
03:45 17.3 °F 8.9 °F 1014.8 in NE 1.6 mph 4.8 mph 58 % 0.0 in
03:55 17.8 °F 8.9 °F 1014.8 in NE 3.2 mph 4.8 mph 56 % 0.0 in
04:05 18.5 °F 9.3 °F 1014.8 in NE 1.6 mph 4.8 mph 55 % 0.0 in
04:15 18.5 °F 9.0 °F 1015.8 in Calm   4.8 mph 54 % 0.0 in
04:25 18.1 °F 8.7 °F 1015.8 in NE 3.2 mph 4.8 mph 54 % 0.0 in
04:35 18.2 °F 8.7 °F 1015.8 in NE 1.6 mph 3.2 mph 54 % 0.0 in
04:45 18.9 °F 9.4 °F 1014.8 in ENE 4.8 mph 6.4 mph 54 % 0.0 in
04:55 19.0 °F 9.2 °F 1015.8 in NE 4.8 mph 6.4 mph 53 % 0.0 in
05:10 19.9 °F 10.1 °F 1015.8 in ENE 4.8 mph 8.0 mph 53 % 0.0 in
05:20 20.1 °F 10.2 °F 1015.8 in ENE 8.0 mph 9.7 mph 53 % 0.0 in
05:30 20.2 °F 10.3 °F 1014.8 in ENE 9.7 mph 9.7 mph 53 % 0.0 in
05:40 20.1 °F 10.2 °F 1014.8 in ESE 8.0 mph 8.0 mph 53 % 0.0 in
10:44 20.3 °F 10.7 °F 1014.8 in East 5.6 mph 6.4 mph 54 % 0.0 in
10:45 20.3 °F 10.7 °F 1014.8 in East 5.6 mph 6.4 mph 54 % 0.0 in
10:46 20.4 °F 10.5 °F 1014.8 in ENE 9.3 mph 9.3 mph 53 % 0.0 in
10:51 20.6 °F 10.9 °F 1014.8 in ESE 10.0 mph 10.0 mph 54 % 0.0 in
10:56 20.9 °F 11.2 °F 1014.8 in East 7.6 mph 7.6 mph 54 % 0.0 in
11:01 21.1 °F 11.4 °F 1014.8 in SE 11.1 mph 11.1 mph 54 % 0.0 in
11:06 21.7 °F 11.7 °F 1014.8 in SE 9.3 mph 9.3 mph 53 % 0.0 in
11:11 21.8 °F 11.8 °F 1014.8 in ESE 9.3 mph 9.3 mph 53 % 0.0 in
11:12 21.8 °F 11.8 °F 1014.8 in SE 9.0 mph 9.0 mph 53 % 0.0 in
11:17 21.8 °F 12.1 °F 1014.8 in WSW 7.6 mph 7.6 mph 54 % 0.0 in
11:22 22.1 °F 12.1 °F 1014.8 in NNE 7.9 mph 7.9 mph 53 % 0.0 in
11:27 22.0 °F 12.0 °F 1014.8 in East 9.3 mph 9.3 mph 53 % 0.0 in
11:32 22.0 °F 12.0 °F 1014.8 in SSE 7.4 mph 7.4 mph 53 % 0.0 in
11:37 22.4 °F 12.3 °F 1014.8 in SE 9.3 mph 9.3 mph 53 % 0.0 in
11:42 22.4 °F 12.3 °F 1013.8 in ENE 13.0 mph 13.0 mph 53 % 0.0 in
11:47 22.6 °F 12.6 °F 1013.8 in ENE 9.5 mph 9.5 mph 53 % 0.0 in
11:52 22.5 °F 12.4 °F 1013.8 in ESE 9.3 mph 9.3 mph 53 % 0.0 in
11:57 22.8 °F 12.7 °F 1014.8 in SSE 11.1 mph 11.1 mph 53 % 0.0 in
12:02 22.8 °F 12.7 °F 1014.8 in ENE 13.0 mph 13.0 mph 53 % 0.0 in
12:07 22.5 °F 12.2 °F 1014.8 in ESE 9.3 mph 9.5 mph 52 % 0.0 in
12:12 22.8 °F 12.4 °F 1013.8 in ESE 11.1 mph 11.1 mph 52 % 0.0 in
12:15 23.0 °F 12.3 °F 1013.8 in SE 13.0 mph 13.0 mph 51 % 0.0 in
12:20 22.9 °F 12.5 °F 1013.8 in ESE 9.5 mph 9.5 mph 52 % 0.0 in
12:25 22.8 °F 12.4 °F 1013.8 in East 9.5 mph 9.5 mph 52 % 0.0 in
12:30 23.1 °F 11.8 °F 1013.8 in ENE 9.3 mph 9.3 mph 49 % 0.0 in
12:35 23.1 °F 11.2 °F 1013.8 in ESE 20.4 mph 20.4 mph 47 % 0.0 in
12:40 23.3 °F 11.7 °F 1013.8 in ENE 11.9 mph 11.9 mph 48 % 0.0 in
12:45 23.4 °F 11.1 °F 1013.8 in SE 15.8 mph 15.8 mph 46 % 0.0 in
12:50 24.0 °F 11.3 °F 1013.8 in SSE 9.3 mph 9.3 mph 45 % 0.0 in
12:55 23.7 °F 11.4 °F 1012.8 in North 13.0 mph 13.0 mph 46 % 0.0 in
13:00 23.6 °F 11.3 °F 1012.8 in ESE 20.4 mph 20.4 mph 46 % 0.0 in
13:05 23.5 °F 10.6 °F 1012.8 in NE 16.7 mph 16.7 mph 44 % 0.0 in
13:10 23.7 °F 11.1 °F 1011.7 in North 10.0 mph 10.0 mph 45 % 0.0 in
13:15 24.1 °F 11.4 °F 1011.7 in SE 16.1 mph 16.1 mph 45 % 0.0 in
13:20 24.0 °F 11.3 °F 1011.7 in ENE 18.5 mph 18.5 mph 45 % 0.0 in
13:25 24.2 °F 11.2 °F 1010.7 in East 11.1 mph 11.1 mph 44 % 0.0 in
13:30 24.3 °F 10.9 °F 1010.7 in SSW 11.1 mph 11.1 mph 43 % 0.0 in
13:35 24.2 °F 11.2 °F 1010.7 in North 18.5 mph 18.5 mph 44 % 0.0 in
13:40 24.1 °F 11.4 °F 1011.7 in NNE 9.3 mph 9.3 mph 45 % 0.0 in
13:45 24.3 °F 11.6 °F 1011.7 in ENE 13.7 mph 13.7 mph 45 % 0.0 in
13:50 23.9 °F 11.6 °F 1011.7 in NE 9.3 mph 9.3 mph 46 % 0.0 in
13:55 23.7 °F 11.4 °F 1011.7 in ESE 13.0 mph 13.0 mph 46 % 0.0 in
14:00 23.6 °F 11.3 °F 1011.7 in East 11.1 mph 11.1 mph 46 % 0.0 in
14:05 23.5 °F 11.2 °F 1011.7 in East 15.8 mph 15.8 mph 46 % 0.0 in
14:10 24.0 °F 11.7 °F 1011.7 in ENE 13.0 mph 13.0 mph 46 % 0.0 in
14:15 23.7 °F 11.7 °F 1011.7 in NE 14.8 mph 14.8 mph 47 % 0.0 in
14:20 23.7 °F 11.7 °F 1011.7 in ENE 11.1 mph 11.1 mph 47 % 0.0 in
14:25 23.6 °F 11.9 °F 1010.7 in ESE 7.9 mph 7.9 mph 48 % 0.0 in
14:30 24.2 °F 12.8 °F 1010.7 in WNW 13.0 mph 13.0 mph 49 % 0.0 in
14:35 24.2 °F 12.8 °F 1010.7 in ESE 13.0 mph 13.0 mph 49 % 0.0 in
14:40 24.3 °F 12.9 °F 1011.7 in ESE 10.3 mph 10.3 mph 49 % 0.0 in
14:45 24.2 °F 12.8 °F 1011.7 in ESE 11.1 mph 11.1 mph 49 % 0.0 in
14:50 24.3 °F 12.9 °F 1011.7 in SE 9.3 mph 9.3 mph 49 % 0.0 in
14:55 24.8 °F 13.1 °F 1011.7 in SW 5.6 mph 5.6 mph 48 % 0.0 in
15:00 25.6 °F 12.4 °F 1011.7 in SSW 7.9 mph 7.9 mph 44 % 0.0 in
15:05 25.7 °F 12.6 °F 1011.7 in SW 5.6 mph 5.6 mph 44 % 0.0 in
15:10 26.2 °F 12.6 °F 1011.7 in SW 11.1 mph 11.1 mph 43 % 0.0 in
15:15 26.2 °F 12.3 °F 1011.7 in WNW 9.3 mph 9.3 mph 42 % 0.0 in
15:20 26.5 °F 12.6 °F 1011.7 in SSW 9.5 mph 9.5 mph 42 % 0.0 in
15:25 26.0 °F 11.7 °F 1010.7 in South 16.7 mph 16.7 mph 41 % 0.0 in
15:30 26.0 °F 11.7 °F 1010.7 in SW 14.8 mph 14.8 mph 41 % 0.0 in
15:35 26.0 °F 11.3 °F 1010.7 in SSW 14.8 mph 14.8 mph 40 % 0.0 in
15:40 25.8 °F 11.2 °F 1010.7 in SE 9.3 mph 9.3 mph 40 % 0.0 in
15:45 25.8 °F 11.6 °F 1010.7 in SW 7.4 mph 7.4 mph 41 % 0.0 in
15:50 26.0 °F 11.7 °F 1010.7 in WSW 5.6 mph 5.6 mph 41 % 0.0 in
15:55 26.0 °F 11.3 °F 1010.7 in SSW 16.7 mph 16.7 mph 40 % 0.0 in
15:57 25.4 °F 10.8 °F 1010.7 in SW 14.8 mph 14.8 mph 40 % 0.0 in
16:02 25.3 °F 11.1 °F 1010.7 in SW 11.1 mph 11.1 mph 41 % 0.0 in
16:07 25.0 °F 10.4 °F 1010.7 in SW 5.6 mph 5.6 mph 40 % 0.0 in
16:12 25.0 °F 10.4 °F 1010.7 in SSW 16.9 mph 16.9 mph 40 % 0.0 in
16:17 24.8 °F 10.7 °F 1010.7 in SSW 11.1 mph 11.1 mph 41 % 0.0 in
16:22 24.5 °F 10.4 °F 1010.7 in WNW 14.8 mph 14.8 mph 41 % 0.0 in
16:27 23.1 °F 10.2 °F 1011.7 in WNW 20.4 mph 20.4 mph 44 % 0.0 in
16:32 22.6 °F 10.4 °F 1011.7 in SSW 14.8 mph 14.8 mph 46 % 0.0 in
16:37 22.3 °F 10.4 °F 1011.7 in WNW 14.8 mph 14.8 mph 47 % 0.0 in
16:42 21.9 °F 10.4 °F 1011.7 in NNW 20.4 mph 20.4 mph 48 % 0.0 in
16:47 21.3 °F 10.2 °F 1011.7 in West 22.2 mph 22.2 mph 49 % 0.0 in
16:52 20.5 °F 10.6 °F 1011.7 in East 20.4 mph 20.4 mph 53 % 0.0 in
16:57 19.6 °F 10.8 °F 1011.7 in West 9.3 mph 9.3 mph 57 % 0.0 in
17:02 19.1 °F 10.9 °F 1011.7 in WSW 9.3 mph 9.3 mph 59 % 0.0 in
17:07 18.6 °F 11.2 °F 1011.7 in WSW 11.1 mph 11.1 mph 62 % 0.0 in
17:12 18.5 °F 11.1 °F 1011.7 in WSW 7.4 mph 7.4 mph 62 % 0.0 in
17:17 18.7 °F 11.3 °F 1011.7 in West 16.7 mph 16.7 mph 62 % 0.0 in
17:22 18.6 °F 11.4 °F 1011.7 in WSW 13.0 mph 13.0 mph 63 % 0.0 in
17:27 18.5 °F 11.1 °F 1011.7 in West 11.1 mph 11.1 mph 62 % 0.0 in
17:32 18.3 °F 11.1 °F 1011.7 in WSW 9.3 mph 9.3 mph 63 % 0.0 in
17:37 18.1 °F 10.9 °F 1011.7 in West 9.3 mph 9.3 mph 63 % 0.0 in
17:42 18.0 °F 10.8 °F 1011.7 in WSW 9.3 mph 9.3 mph 63 % 0.0 in
17:47 17.6 °F 10.4 °F 1011.7 in SW 7.4 mph 7.4 mph 63 % 0.0 in
17:52 17.2 °F 10.3 °F 1011.7 in SW 13.0 mph 13.0 mph 64 % 0.0 in
17:57 17.2 °F 10.6 °F 1011.7 in WSW 9.3 mph 9.3 mph 65 % 0.0 in
18:02 17.2 °F 11.0 °F 1011.7 in WSW 7.4 mph 7.4 mph 67 % 0.0 in
18:07 17.0 °F 10.8 °F 1011.7 in WSW 7.4 mph 7.4 mph 67 % 0.0 in
18:12 17.0 °F 11.1 °F 1011.7 in WSW 9.3 mph 9.3 mph 68 % 0.0 in
18:17 17.0 °F 11.1 °F 1011.7 in SW 7.4 mph 7.4 mph 68 % 0.0 in
18:22 17.0 °F 11.1 °F 1011.7 in West 9.3 mph 9.3 mph 68 % 0.0 in
18:27 16.9 °F 11.4 °F 1011.7 in SW 5.6 mph 5.6 mph 70 % 0.0 in
18:32 16.8 °F 11.5 °F 1011.7 in West 5.0 mph 5.0 mph 71 % 0.0 in
18:37 16.7 °F 11.2 °F 1011.7 in SW 9.0 mph 9.0 mph 70 % 0.0 in
18:42 16.7 °F 11.4 °F 1012.8 in SW 4.7 mph 4.7 mph 71 % 0.0 in
18:47 16.6 °F 11.3 °F 1012.8 in SW 6.1 mph 6.1 mph 71 % 0.0 in
18:52 16.6 °F 11.3 °F 1012.8 in SW 5.6 mph 5.6 mph 71 % 0.0 in
18:57 16.7 °F 11.4 °F 1012.8 in WSW 7.4 mph 7.4 mph 71 % 0.0 in
19:02 16.8 °F 11.9 °F 1012.8 in SW 1.9 mph 1.9 mph 73 % 0.0 in
19:07 16.9 °F 11.8 °F 1012.8 in WSW 5.6 mph 5.6 mph 72 % 0.0 in
19:12 16.9 °F 11.8 °F 1013.8 in SW 3.9 mph 3.9 mph 72 % 0.0 in
19:17 16.8 °F 11.3 °F 1013.8 in WNW 5.6 mph 5.6 mph 70 % 0.0 in
19:20 12.9 °F 7.3 °F 1015.8 in West 4.8 mph 8.0 mph 69 % 1.3 in
19:22 16.9 °F 11.6 °F 1013.8 in West 3.7 mph 3.7 mph 71 % 0.0 in
19:27 17.0 °F 11.5 °F 1012.8 in West 3.7 mph 3.7 mph 70 % 0.0 in
19:30 12.7 °F 7.2 °F 1015.8 in West 3.2 mph 3.2 mph 69 % 1.3 in
19:32 17.0 °F 11.5 °F 1012.8 in WSW 3.7 mph 3.7 mph 70 % 0.0 in
19:37 17.0 °F 11.7 °F 1012.8 in SW 2.6 mph   71 % 0.0 in
19:40 12.6 °F 7.1 °F 1015.8 in Calm   4.8 mph 69 % 0.0 in
19:42 16.9 °F 12.0 °F 1012.8 in SW 3.7 mph 3.7 mph 73 % 0.0 in
19:47 16.7 °F 11.6 °F 1012.8 in WSW 3.7 mph 3.7 mph 72 % 0.0 in
19:50 12.5 °F 6.8 °F 1015.8 in West 1.6 mph 3.2 mph 68 % 0.0 in
19:52 16.7 °F 12.1 °F 1012.8 in NW 2.6 mph 2.6 mph 74 % 0.0 in
19:57 16.6 °F 11.9 °F 1012.8 in Calm     74 % 0.0 in
20:00 12.3 °F 6.6 °F 1015.8 in West 4.8 mph 4.8 mph 68 % 0.0 in
20:02 16.6 °F 11.9 °F 1012.8 in North 5.6 mph 5.6 mph 74 % 0.0 in
20:07 16.6 °F 12.2 °F 1012.8 in East 1.9 mph   75 % 0.0 in
20:10 12.2 °F 6.4 °F 1016.8 in West 3.2 mph 4.8 mph 68 % 0.0 in
20:12 16.6 °F 11.9 °F 1011.7 in NNE 3.7 mph   74 % 0.0 in
20:13 16.6 °F 12.2 °F 1011.7 in North 3.7 mph 3.7 mph 75 % 0.0 in
20:18 16.5 °F 12.1 °F 1011.7 in West 3.7 mph 3.7 mph 75 % 0.0 in
20:20 12.1 °F 6.2 °F 1016.8 in WSW 1.6 mph 4.8 mph 67 % 0.0 in
20:23 16.6 °F 12.3 °F 1011.7 in WSW 3.5 mph   76 % 0.0 in
20:28 16.4 °F 12.3 °F 1011.7 in SW 1.9 mph   77 % 0.0 in
20:30 12.0 °F 6.1 °F 1016.8 in Calm   3.2 mph 67 % 0.0 in
20:33 16.1 °F 11.9 °F 1011.7 in WSW 4.7 mph 4.7 mph 76 % 0.0 in
20:38 15.9 °F 11.7 °F 1013.8 in WSW 4.7 mph 4.7 mph 76 % 0.0 in
20:40 11.8 °F 5.9 °F 1016.8 in WSW 3.2 mph 4.8 mph 67 % 0.0 in
20:43 15.8 °F 11.6 °F 1013.8 in SW 4.2 mph 4.2 mph 76 % 0.0 in
20:48 15.8 °F 11.8 °F 1013.8 in WSW 3.7 mph 3.7 mph 77 % 0.0 in
20:50 11.4 °F 5.7 °F 1016.8 in WSW 3.2 mph 4.8 mph 68 % 0.0 in
20:53 15.8 °F 11.8 °F 1013.8 in West 3.7 mph 3.7 mph 77 % 0.0 in
20:58 15.9 °F 11.9 °F 1013.8 in West 3.7 mph 3.7 mph 77 % 0.0 in
21:00 11.5 °F 5.6 °F 1016.8 in WSW 3.2 mph 4.8 mph 67 % 0.0 in
21:03 15.9 °F 12.1 °F 1013.8 in SSW 3.7 mph 3.7 mph 78 % 0.0 in
21:08 15.9 °F 12.1 °F 1013.8 in WSW 5.6 mph 5.6 mph 78 % 0.0 in
21:10 11.4 °F 5.7 °F 1016.8 in Calm   3.2 mph 68 % 0.0 in
21:13 15.8 °F 11.8 °F 1013.8 in SW 7.4 mph 7.4 mph 77 % 0.0 in
21:18 15.6 °F 11.4 °F 1013.8 in WSW 9.3 mph 9.3 mph 76 % 0.0 in
21:20 11.2 °F 5.5 °F 1016.8 in WSW 1.6 mph 3.2 mph 68 % 0.0 in
21:23 15.6 °F 11.4 °F 1013.8 in West 5.6 mph 5.6 mph 76 % 0.0 in
21:28 15.6 °F 11.4 °F 1013.8 in NW 7.4 mph 7.4 mph 76 % 0.0 in
21:30 10.9 °F 5.0 °F 1015.8 in WSW 4.8 mph 4.8 mph 67 % 0.0 in
21:33 15.5 °F 11.3 °F 1013.8 in WSW 9.7 mph 9.7 mph 76 % 0.0 in
21:38 15.4 °F 11.2 °F 1013.8 in WSW 9.0 mph 9.0 mph 76 % 0.0 in
21:40 10.7 °F 5.1 °F 1015.8 in WSW 3.2 mph 4.8 mph 68 % 0.0 in
21:43 15.3 °F 11.1 °F 1013.8 in WSW 7.4 mph 7.4 mph 76 % 0.0 in
21:48 15.2 °F 10.8 °F 1013.8 in WSW 9.3 mph 9.3 mph 75 % 0.0 in
21:53 15.0 °F 10.8 °F 1013.8 in SW 15.6 mph 15.6 mph 76 % 0.0 in
21:58 14.9 °F 10.5 °F 1013.8 in WSW 8.7 mph 8.7 mph 75 % 1.3 in
22:00 10.7 °F 4.8 °F 1016.8 in West 1.6 mph 6.4 mph 67 % 0.0 in
22:03 14.7 °F 10.3 °F 1013.8 in West 11.1 mph 11.1 mph 75 % 1.3 in
22:08 14.6 °F 10.4 °F 1013.8 in SW 5.8 mph 5.8 mph 76 % 1.3 in
22:10 10.6 °F 4.9 °F 1016.8 in WSW 1.6 mph 3.2 mph 68 % 0.0 in
22:13 14.5 °F 10.3 °F 1013.8 in SW 5.0 mph 5.0 mph 76 % 1.3 in
22:18 14.4 °F 10.0 °F 1013.8 in WSW 7.6 mph 7.6 mph 75 % 1.3 in
22:20 10.6 °F 4.9 °F 1016.8 in Calm   3.2 mph 68 % 0.0 in
22:23 14.3 °F 9.9 °F 1013.8 in West 5.6 mph 5.6 mph 75 % 1.3 in
22:28 14.2 °F 9.8 °F 1013.8 in WSW 7.4 mph 7.4 mph 75 % 1.3 in
22:30 10.3 °F 4.7 °F 1017.8 in ENE 3.2 mph 4.8 mph 68 % 0.0 in
22:33 14.2 °F 9.8 °F 1013.8 in WSW 7.4 mph 7.4 mph 75 % 1.3 in
22:38 14.1 °F 9.9 °F 1014.8 in SW 7.4 mph 7.4 mph 76 % 1.3 in
22:40 10.3 °F 4.7 °F 1017.8 in WSW 3.2 mph 4.8 mph 68 % 0.0 in
22:43 14.0 °F 9.6 °F 1014.8 in WSW 3.9 mph 3.9 mph 75 % 1.3 in
22:48 13.9 °F 9.6 °F 1014.8 in NW 5.6 mph 5.6 mph 75 % 1.3 in
22:50 10.2 °F 4.6 °F 1017.8 in Calm   4.8 mph 68 % 0.0 in
22:53 13.9 °F 9.6 °F 1015.8 in West 3.7 mph 3.9 mph 75 % 1.3 in
22:58 13.9 °F 9.3 °F 1015.8 in West 5.6 mph 5.6 mph 74 % 0.0 in
23:00 10.2 °F 4.6 °F 1017.8 in WSW 1.6 mph 3.2 mph 68 % 0.0 in
23:03 13.8 °F 9.2 °F 1015.8 in NNW 3.7 mph 3.7 mph 74 % 0.0 in
23:09 13.8 °F 9.2 °F 1015.8 in WNW 5.6 mph 5.6 mph 74 % 0.0 in
23:10 10.2 °F 4.6 °F 1017.8 in West 1.6 mph 3.2 mph 68 % 0.0 in
23:14 13.7 °F 8.9 °F 1015.8 in SW 9.3 mph 9.3 mph 73 % 0.0 in
23:19 13.7 °F 8.9 °F 1015.8 in West 5.6 mph 5.6 mph 73 % 0.0 in
23:20 10.0 °F 4.3 °F 1017.8 in SW 1.6 mph 3.2 mph 68 % 0.0 in
23:24 13.6 °F 8.7 °F 1015.8 in WSW 6.9 mph 6.9 mph 72 % 0.0 in
23:29 13.5 °F 8.6 °F 1015.8 in WNW 5.6 mph 5.6 mph 72 % 0.0 in
23:30 10.0 °F 4.3 °F 1018.8 in SW 3.2 mph 3.2 mph 68 % 0.0 in
23:34 13.4 °F 8.4 °F 1015.8 in West 3.7 mph 3.7 mph 72 % 0.0 in
23:39 13.3 °F 8.3 °F 1015.8 in SW 3.7 mph 3.7 mph 72 % 0.0 in
23:40 10.0 °F 4.6 °F 1016.8 in Calm   3.2 mph 69 % 0.0 in
23:44 13.2 °F 8.1 °F 1015.8 in WSW 7.4 mph 7.4 mph 71 % 0.0 in
23:49 13.2 °F 8.1 °F 1015.8 in West 3.7 mph 3.7 mph 71 % 0.0 in
23:50 10.1 °F 4.7 °F 1016.8 in NNW 3.2 mph 4.8 mph 69 % 0.0 in
23:54 13.1 °F 7.7 °F 1015.8 in SW 3.7 mph 3.7 mph 70 % 0.0 in
23:59 13.0 °F 7.9 °F 1015.8 in West 3.2 mph   71 % 0.0 in
Meteo Sesrovires
Elogis d' Weather Underground - 1.5 mb

Guio original per  Jim McMurry - jmcmurry@mwt.net Adaptat per a la plantilla per  Wim van der Kuil - Leuven-Template.eu

Trobareu la nostra informacio del temps tambe a:

Weather Underground

AWEKAS